CEB2801 RPLL-RPVM
Flight info
| Callsign | CEB2801 |
|---|---|
| Flight time | 0h 57m |
| Altitude | 37000 |
| Route | IPATA2R IPATA W25 BATAY BATAY3P |
| Aircraft | A20N/M-SDE2E3FGHIRWXY/LB1 |
Departure
| Time | 2026-05-05 15:55 |
|---|---|
| Airport | Ninoy Aquino International Airport (RPLL) |
Arrival
| Time | 2026-05-05 16:53 |
|---|---|
| Airport | Mactan Cebu International Airport (RPVM) |
| Time | Latitude | Longitude | Altitude | Speed | Heading |
|---|---|---|---|---|---|
| 2026-05-05 15:33 | 14.50901 | 121.01361 | 82 ft | 0 kts | 329° |
| 2026-05-05 15:41 | 14.50900 | 121.01361 | 82 ft | 0 kts | 329° |
| 2026-05-05 15:41 | 14.50887 | 121.01369 | 82 ft | 2 kts | 329° |
| 2026-05-05 15:42 | 14.50874 | 121.01377 | 82 ft | 2 kts | 329° |
| 2026-05-05 15:42 | 14.50862 | 121.01385 | 82 ft | 2 kts | 329° |
| 2026-05-05 15:42 | 14.50849 | 121.01392 | 82 ft | 2 kts | 329° |
| 2026-05-05 15:42 | 14.50836 | 121.01401 | 82 ft | 2 kts | 329° |
| 2026-05-05 15:43 | 14.50827 | 121.01406 | 82 ft | 2 kts | 321° |
| 2026-05-05 15:43 | 14.50819 | 121.01418 | 82 ft | 2 kts | 287° |
| 2026-05-05 15:43 | 14.50817 | 121.01434 | 82 ft | 2 kts | 257° |
| 2026-05-05 15:43 | 14.50820 | 121.01442 | 82 ft | 1 kts | 240° |
| 2026-05-05 15:44 | 14.50824 | 121.01447 | 82 ft | 0 kts | 240° |
| 2026-05-05 15:46 | 14.50823 | 121.01446 | 82 ft | 1 kts | 239° |
| 2026-05-05 15:46 | 14.50811 | 121.01424 | 82 ft | 4 kts | 241° |
| 2026-05-05 15:47 | 14.50792 | 121.01391 | 82 ft | 6 kts | 241° |
| 2026-05-05 15:47 | 14.50777 | 121.01362 | 82 ft | 7 kts | 242° |
| 2026-05-05 15:47 | 14.50734 | 121.01311 | 82 ft | 7 kts | 189° |
| 2026-05-05 15:47 | 14.50683 | 121.01324 | 82 ft | 7 kts | 190° |
| 2026-05-05 15:48 | 14.50647 | 121.01278 | 82 ft | 9 kts | 240° |
| 2026-05-05 15:48 | 14.50613 | 121.01216 | 82 ft | 10 kts | 240° |
| 2026-05-05 15:48 | 14.50573 | 121.01147 | 82 ft | 11 kts | 240° |
| 2026-05-05 15:48 | 14.50532 | 121.01071 | 82 ft | 12 kts | 240° |
| 2026-05-05 15:49 | 14.50486 | 121.00990 | 82 ft | 13 kts | 240° |
| 2026-05-05 15:49 | 14.50438 | 121.00903 | 82 ft | 14 kts | 240° |
| 2026-05-05 15:49 | 14.50388 | 121.00813 | 82 ft | 14 kts | 240° |
| 2026-05-05 15:49 | 14.50335 | 121.00718 | 82 ft | 15 kts | 240° |
| 2026-05-05 15:50 | 14.50282 | 121.00621 | 82 ft | 15 kts | 240° |
| 2026-05-05 15:50 | 14.50226 | 121.00521 | 82 ft | 16 kts | 240° |
| 2026-05-05 15:50 | 14.50169 | 121.00419 | 82 ft | 16 kts | 240° |
| 2026-05-05 15:50 | 14.50112 | 121.00315 | 82 ft | 16 kts | 240° |
| 2026-05-05 15:51 | 14.50052 | 121.00208 | 82 ft | 17 kts | 240° |
| 2026-05-05 15:51 | 14.49993 | 121.00101 | 82 ft | 17 kts | 240° |
| 2026-05-05 15:51 | 14.49933 | 120.99995 | 82 ft | 14 kts | 239° |
| 2026-05-05 15:51 | 14.49884 | 120.99962 | 82 ft | 3 kts | 167° |
| 2026-05-05 15:52 | 14.49883 | 120.99963 | 82 ft | 0 kts | 162° |
| 2026-05-05 15:53 | 14.49875 | 120.99965 | 82 ft | 2 kts | 160° |
| 2026-05-05 15:53 | 14.49846 | 120.99982 | 82 ft | 6 kts | 149° |
| 2026-05-05 15:54 | 14.49797 | 121.00015 | 82 ft | 9 kts | 129° |
| 2026-05-05 15:54 | 14.49817 | 121.00073 | 82 ft | 9 kts | 58° |
| 2026-05-05 15:54 | 14.49825 | 121.00088 | 82 ft | 0 kts | 60° |
| 2026-05-05 15:54 | 14.49839 | 121.00112 | 82 ft | 13 kts | 60° |
| 2026-05-05 15:55 | 14.50017 | 121.00432 | 82 ft | 87 kts | 60° |
| 2026-05-05 15:55 | 14.50422 | 121.01163 | 83 ft | 147 kts | 60° |
| 2026-05-05 15:55 | 14.50999 | 121.02159 | 375 ft | 166 kts | 60° |
| 2026-05-05 15:55 | 14.51577 | 121.03178 | 1020 ft | 164 kts | 60° |
| 2026-05-05 15:56 | 14.52129 | 121.04175 | 1728 ft | 160 kts | 59° |
| 2026-05-05 15:56 | 14.52675 | 121.05175 | 2247 ft | 167 kts | 62° |
| 2026-05-05 15:56 | 14.53257 | 121.06264 | 2634 ft | 183 kts | 62° |
| 2026-05-05 15:56 | 14.53908 | 121.07465 | 3066 ft | 198 kts | 62° |
| 2026-05-05 15:57 | 14.54339 | 121.08834 | 3534 ft | 210 kts | 91° |
| 2026-05-05 15:57 | 14.53775 | 121.10264 | 3950 ft | 230 kts | 129° |
| 2026-05-05 15:57 | 14.52582 | 121.11477 | 4428 ft | 250 kts | 137° |
| 2026-05-05 15:57 | 14.51239 | 121.12705 | 4934 ft | 268 kts | 136° |
| 2026-05-05 15:58 | 14.49847 | 121.14031 | 5617 ft | 276 kts | 135° |
| 2026-05-05 15:58 | 14.48464 | 121.15406 | 6500 ft | 279 kts | 134° |
| 2026-05-05 15:58 | 14.47096 | 121.16804 | 7350 ft | 281 kts | 133° |
| 2026-05-05 15:58 | 14.45715 | 121.18242 | 8219 ft | 283 kts | 133° |
| 2026-05-05 15:59 | 14.44339 | 121.19693 | 9026 ft | 285 kts | 133° |
| 2026-05-05 15:59 | 14.42955 | 121.21162 | 9816 ft | 288 kts | 132° |
| 2026-05-05 15:59 | 14.41558 | 121.22650 | 10505 ft | 293 kts | 132° |
| 2026-05-05 15:59 | 14.40102 | 121.24205 | 10912 ft | 310 kts | 132° |
| 2026-05-05 16:00 | 14.38576 | 121.25837 | 11248 ft | 327 kts | 133° |
| 2026-05-05 16:00 | 14.36956 | 121.27567 | 11784 ft | 336 kts | 133° |
| 2026-05-05 16:00 | 14.35326 | 121.29306 | 12441 ft | 340 kts | 133° |
| 2026-05-05 16:00 | 14.33699 | 121.31042 | 13075 ft | 343 kts | 133° |
| 2026-05-05 16:01 | 14.32027 | 121.32828 | 13681 ft | 347 kts | 133° |
| 2026-05-05 16:01 | 14.30347 | 121.34624 | 14284 ft | 350 kts | 133° |
| 2026-05-05 16:01 | 14.28651 | 121.36437 | 14870 ft | 353 kts | 133° |
| 2026-05-05 16:01 | 14.26928 | 121.38278 | 15436 ft | 357 kts | 133° |
| 2026-05-05 16:02 | 14.25214 | 121.40108 | 15980 ft | 360 kts | 133° |
| 2026-05-05 16:02 | 14.23467 | 121.41972 | 16525 ft | 363 kts | 133° |
| 2026-05-05 16:02 | 14.21707 | 121.43850 | 17042 ft | 367 kts | 133° |
| 2026-05-05 16:02 | 14.19914 | 121.45764 | 17572 ft | 370 kts | 133° |
| 2026-05-05 16:03 | 14.18135 | 121.47664 | 18074 ft | 373 kts | 133° |
| 2026-05-05 16:03 | 14.16330 | 121.49590 | 18583 ft | 376 kts | 134° |
| 2026-05-05 16:03 | 14.14517 | 121.51523 | 19100 ft | 378 kts | 134° |
| 2026-05-05 16:03 | 14.12673 | 121.53490 | 19620 ft | 380 kts | 134° |
| 2026-05-05 16:04 | 14.10847 | 121.55437 | 20108 ft | 383 kts | 134° |
| 2026-05-05 16:04 | 14.08990 | 121.57417 | 20607 ft | 385 kts | 134° |
| 2026-05-05 16:04 | 14.07109 | 121.59422 | 21089 ft | 387 kts | 134° |
| 2026-05-05 16:04 | 14.05252 | 121.61401 | 21559 ft | 389 kts | 134° |
| 2026-05-05 16:05 | 14.03372 | 121.63405 | 22012 ft | 392 kts | 134° |
| 2026-05-05 16:05 | 14.01454 | 121.65449 | 22466 ft | 395 kts | 134° |
| 2026-05-05 16:05 | 13.99545 | 121.67497 | 22907 ft | 398 kts | 134° |
| 2026-05-05 16:05 | 13.97617 | 121.69566 | 23340 ft | 401 kts | 134° |
| 2026-05-05 16:06 | 13.95690 | 121.71629 | 23768 ft | 404 kts | 134° |
| 2026-05-05 16:06 | 13.93735 | 121.73715 | 24195 ft | 407 kts | 135° |
| 2026-05-05 16:06 | 13.91747 | 121.75831 | 24619 ft | 409 kts | 135° |
| 2026-05-05 16:06 | 13.89769 | 121.77933 | 25031 ft | 412 kts | 135° |
| 2026-05-05 16:07 | 13.87716 | 121.80006 | 25426 ft | 415 kts | 138° |
| 2026-05-05 16:07 | 13.85550 | 121.81956 | 25819 ft | 418 kts | 141° |
| 2026-05-05 16:07 | 13.83225 | 121.83820 | 26199 ft | 420 kts | 144° |
| 2026-05-05 16:07 | 13.80867 | 121.85600 | 26564 ft | 423 kts | 144° |
| 2026-05-05 16:08 | 13.78494 | 121.87382 | 26927 ft | 426 kts | 144° |
| 2026-05-05 16:08 | 13.76091 | 121.89188 | 27275 ft | 429 kts | 144° |
| 2026-05-05 16:08 | 13.73654 | 121.91021 | 27621 ft | 432 kts | 144° |
| 2026-05-05 16:08 | 13.71233 | 121.92842 | 27964 ft | 434 kts | 144° |
| 2026-05-05 16:09 | 13.68800 | 121.94674 | 28296 ft | 437 kts | 144° |
| 2026-05-05 16:09 | 13.66315 | 121.96546 | 28638 ft | 439 kts | 144° |
| 2026-05-05 16:09 | 13.63858 | 121.98396 | 28965 ft | 442 kts | 144° |
| 2026-05-05 16:09 | 13.61358 | 122.00280 | 29301 ft | 444 kts | 144° |
| 2026-05-05 16:10 | 13.58862 | 122.02160 | 29693 ft | 445 kts | 145° |
| 2026-05-05 16:10 | 13.56379 | 122.04031 | 30160 ft | 444 kts | 145° |
| 2026-05-05 16:10 | 13.53884 | 122.05908 | 30623 ft | 442 kts | 145° |
| 2026-05-05 16:10 | 13.51417 | 122.07766 | 31057 ft | 442 kts | 145° |
| 2026-05-05 16:11 | 13.48945 | 122.09625 | 31484 ft | 441 kts | 145° |
| 2026-05-05 16:11 | 13.41533 | 122.15202 | 32743 ft | 439 kts | 145° |
| 2026-05-05 16:12 | 13.39075 | 122.17050 | 33169 ft | 438 kts | 145° |
| 2026-05-05 16:12 | 13.34134 | 122.20762 | 34024 ft | 437 kts | 145° |
| 2026-05-05 16:13 | 13.26823 | 122.26251 | 35191 ft | 435 kts | 145° |
| 2026-05-05 16:13 | 13.24371 | 122.28091 | 35497 ft | 435 kts | 145° |
| 2026-05-05 16:13 | 13.21907 | 122.29938 | 35751 ft | 437 kts | 145° |
| 2026-05-05 16:14 | 13.17010 | 122.33611 | 36223 ft | 439 kts | 145° |
| 2026-05-05 16:14 | 13.12046 | 122.37331 | 36681 ft | 441 kts | 145° |
| 2026-05-05 16:15 | 13.07097 | 122.41040 | 36852 ft | 443 kts | 145° |
| 2026-05-05 16:15 | 13.02097 | 122.44785 | 36859 ft | 443 kts | 145° |
| 2026-05-05 16:16 | 12.92130 | 122.52245 | 36861 ft | 444 kts | 145° |
| 2026-05-05 16:17 | 12.84605 | 122.57851 | 36861 ft | 444 kts | 145° |
| 2026-05-05 16:18 | 12.77117 | 122.63433 | 36872 ft | 444 kts | 145° |
| 2026-05-05 16:19 | 12.69649 | 122.69036 | 36874 ft | 443 kts | 145° |
| 2026-05-05 16:19 | 12.62190 | 122.74625 | 36873 ft | 443 kts | 145° |
| 2026-05-05 16:20 | 12.52214 | 122.82067 | 36871 ft | 444 kts | 145° |
| 2026-05-05 16:22 | 12.39756 | 122.91360 | 36871 ft | 443 kts | 145° |
| 2026-05-05 16:23 | 12.29769 | 122.98785 | 36880 ft | 444 kts | 146° |
| 2026-05-05 16:23 | 12.22276 | 123.04329 | 36881 ft | 444 kts | 145° |
| 2026-05-05 16:24 | 12.17268 | 123.08044 | 36881 ft | 444 kts | 145° |
| 2026-05-05 16:25 | 12.09770 | 123.13608 | 36884 ft | 443 kts | 145° |
| 2026-05-05 16:25 | 12.02286 | 123.19160 | 36880 ft | 442 kts | 145° |
| 2026-05-05 16:26 | 11.92331 | 123.26538 | 36870 ft | 442 kts | 145° |
| 2026-05-05 16:27 | 11.89838 | 123.28384 | 36679 ft | 444 kts | 145° |
| 2026-05-05 16:27 | 11.87325 | 123.30237 | 36127 ft | 442 kts | 145° |
| 2026-05-05 16:27 | 11.84822 | 123.32079 | 35487 ft | 442 kts | 145° |
| 2026-05-05 16:27 | 11.82334 | 123.33913 | 34856 ft | 441 kts | 145° |
| 2026-05-05 16:28 | 11.79842 | 123.35751 | 34226 ft | 440 kts | 145° |
| 2026-05-05 16:28 | 11.77373 | 123.37574 | 33597 ft | 439 kts | 145° |
| 2026-05-05 16:28 | 11.74893 | 123.39407 | 32961 ft | 439 kts | 145° |
| 2026-05-05 16:28 | 11.72441 | 123.41220 | 32344 ft | 438 kts | 145° |
| 2026-05-05 16:29 | 11.69970 | 123.43048 | 31732 ft | 439 kts | 145° |
| 2026-05-05 16:29 | 11.67505 | 123.44870 | 31094 ft | 440 kts | 145° |
| 2026-05-05 16:29 | 11.65022 | 123.46705 | 30429 ft | 441 kts | 145° |
| 2026-05-05 16:29 | 11.62538 | 123.48540 | 29748 ft | 442 kts | 145° |
| 2026-05-05 16:30 | 11.60029 | 123.50392 | 29052 ft | 443 kts | 144° |
| 2026-05-05 16:30 | 11.57567 | 123.52211 | 28526 ft | 440 kts | 144° |
| 2026-05-05 16:30 | 11.55073 | 123.54054 | 28069 ft | 435 kts | 144° |
| 2026-05-05 16:30 | 11.52649 | 123.55845 | 27620 ft | 431 kts | 144° |
| 2026-05-05 16:31 | 11.50232 | 123.57629 | 27167 ft | 426 kts | 144° |
| 2026-05-05 16:31 | 11.47848 | 123.59390 | 26717 ft | 422 kts | 144° |
| 2026-05-05 16:31 | 11.45489 | 123.61132 | 26271 ft | 418 kts | 144° |
| 2026-05-05 16:31 | 11.43119 | 123.62882 | 25816 ft | 414 kts | 144° |
| 2026-05-05 16:32 | 11.40813 | 123.64584 | 25374 ft | 411 kts | 144° |
| 2026-05-05 16:32 | 11.38512 | 123.66289 | 24928 ft | 407 kts | 144° |
| 2026-05-05 16:32 | 11.36217 | 123.67997 | 24483 ft | 404 kts | 143° |
| 2026-05-05 16:32 | 11.33967 | 123.69669 | 24042 ft | 401 kts | 143° |
| 2026-05-05 16:33 | 11.31698 | 123.71349 | 23595 ft | 398 kts | 143° |
| 2026-05-05 16:33 | 11.29469 | 123.72997 | 23158 ft | 394 kts | 143° |
| 2026-05-05 16:33 | 11.27257 | 123.74630 | 22719 ft | 392 kts | 143° |
| 2026-05-05 16:33 | 11.25070 | 123.76244 | 22280 ft | 389 kts | 143° |
| 2026-05-05 16:34 | 11.22895 | 123.77849 | 21849 ft | 386 kts | 143° |
| 2026-05-05 16:34 | 11.20707 | 123.79462 | 21408 ft | 383 kts | 143° |
| 2026-05-05 16:34 | 11.18563 | 123.81041 | 20967 ft | 381 kts | 143° |
| 2026-05-05 16:34 | 11.16404 | 123.82613 | 20512 ft | 379 kts | 146° |
| 2026-05-05 16:35 | 11.14010 | 123.83691 | 20034 ft | 381 kts | 166° |
| 2026-05-05 16:35 | 11.11366 | 123.83815 | 19571 ft | 383 kts | 187° |
| 2026-05-05 16:35 | 11.08783 | 123.83175 | 19117 ft | 383 kts | 194° |
| 2026-05-05 16:35 | 11.06219 | 123.82430 | 18652 ft | 381 kts | 194° |
| 2026-05-05 16:36 | 11.03667 | 123.81692 | 18191 ft | 380 kts | 194° |
| 2026-05-05 16:36 | 11.01123 | 123.80967 | 17736 ft | 378 kts | 194° |
| 2026-05-05 16:36 | 10.98594 | 123.80254 | 17282 ft | 376 kts | 194° |
| 2026-05-05 16:36 | 10.96065 | 123.79544 | 16833 ft | 374 kts | 194° |
| 2026-05-05 16:37 | 10.93548 | 123.78841 | 16384 ft | 372 kts | 194° |
| 2026-05-05 16:37 | 10.91077 | 123.78152 | 15943 ft | 370 kts | 194° |
| 2026-05-05 16:37 | 10.88591 | 123.77459 | 15494 ft | 368 kts | 194° |
| 2026-05-05 16:37 | 10.86109 | 123.76771 | 15044 ft | 366 kts | 194° |
| 2026-05-05 16:38 | 10.83673 | 123.76094 | 14601 ft | 364 kts | 194° |
| 2026-05-05 16:38 | 10.81231 | 123.75414 | 14157 ft | 362 kts | 194° |
| 2026-05-05 16:38 | 10.78808 | 123.74739 | 13715 ft | 360 kts | 194° |
| 2026-05-05 16:38 | 10.76395 | 123.74066 | 13270 ft | 358 kts | 194° |
| 2026-05-05 16:39 | 10.73991 | 123.73395 | 12834 ft | 356 kts | 194° |
| 2026-05-05 16:39 | 10.71603 | 123.72730 | 12401 ft | 354 kts | 194° |
| 2026-05-05 16:39 | 10.69237 | 123.72070 | 11987 ft | 351 kts | 194° |
| 2026-05-05 16:39 | 10.66878 | 123.71413 | 11569 ft | 349 kts | 194° |
| 2026-05-05 16:40 | 10.64559 | 123.70766 | 11157 ft | 346 kts | 194° |
| 2026-05-05 16:40 | 10.62210 | 123.70113 | 10736 ft | 344 kts | 194° |
| 2026-05-05 16:40 | 10.59904 | 123.69469 | 10319 ft | 341 kts | 194° |
| 2026-05-05 16:40 | 10.57647 | 123.68840 | 10126 ft | 330 kts | 194° |
| 2026-05-05 16:41 | 10.55490 | 123.68238 | 10060 ft | 315 kts | 194° |
| 2026-05-05 16:41 | 10.53399 | 123.67655 | 9988 ft | 301 kts | 193° |
| 2026-05-05 16:41 | 10.51396 | 123.67097 | 9656 ft | 299 kts | 193° |
| 2026-05-05 16:41 | 10.49392 | 123.66541 | 9320 ft | 296 kts | 193° |
| 2026-05-05 16:42 | 10.47410 | 123.65991 | 8991 ft | 294 kts | 193° |
| 2026-05-05 16:42 | 10.45432 | 123.65443 | 8671 ft | 291 kts | 193° |
| 2026-05-05 16:42 | 10.43468 | 123.64897 | 8352 ft | 289 kts | 193° |
| 2026-05-05 16:42 | 10.41537 | 123.64361 | 8035 ft | 286 kts | 193° |
| 2026-05-05 16:43 | 10.39617 | 123.63827 | 7722 ft | 284 kts | 193° |
| 2026-05-05 16:43 | 10.37713 | 123.63296 | 7417 ft | 282 kts | 193° |
| 2026-05-05 16:43 | 10.35830 | 123.62852 | 7079 ft | 279 kts | 182° |
| 2026-05-05 16:43 | 10.33947 | 123.63194 | 6735 ft | 270 kts | 151° |
| 2026-05-05 16:44 | 10.32491 | 123.64327 | 6445 ft | 263 kts | 133° |
| 2026-05-05 16:44 | 10.31225 | 123.65663 | 6163 ft | 261 kts | 132° |
| 2026-05-05 16:44 | 10.29964 | 123.66989 | 5873 ft | 259 kts | 132° |
| 2026-05-05 16:44 | 10.28707 | 123.68294 | 5587 ft | 257 kts | 133° |
| 2026-05-05 16:45 | 10.27463 | 123.69572 | 5300 ft | 256 kts | 133° |
| 2026-05-05 16:45 | 10.26209 | 123.70853 | 5012 ft | 254 kts | 133° |
| 2026-05-05 16:45 | 10.24966 | 123.72118 | 4729 ft | 253 kts | 133° |
| 2026-05-05 16:45 | 10.23710 | 123.73395 | 4439 ft | 252 kts | 133° |
| 2026-05-05 16:46 | 10.22476 | 123.74652 | 4154 ft | 251 kts | 133° |
| 2026-05-05 16:46 | 10.21232 | 123.75917 | 3865 ft | 253 kts | 133° |
| 2026-05-05 16:46 | 10.19989 | 123.77179 | 3577 ft | 251 kts | 133° |
| 2026-05-05 16:46 | 10.18758 | 123.78429 | 3291 ft | 248 kts | 133° |
| 2026-05-05 16:47 | 10.17554 | 123.79651 | 3014 ft | 245 kts | 133° |
| 2026-05-05 16:47 | 10.16471 | 123.80949 | 2895 ft | 231 kts | 113° |
| 2026-05-05 16:47 | 10.16198 | 123.82460 | 2831 ft | 215 kts | 80° |
| 2026-05-05 16:47 | 10.16759 | 123.83833 | 2788 ft | 213 kts | 54° |
| 2026-05-05 16:48 | 10.17713 | 123.84945 | 2741 ft | 202 kts | 45° |
| 2026-05-05 16:48 | 10.18708 | 123.85910 | 2711 ft | 193 kts | 44° |
| 2026-05-05 16:48 | 10.19642 | 123.86804 | 2710 ft | 176 kts | 45° |
| 2026-05-05 16:48 | 10.20481 | 123.87627 | 2528 ft | 160 kts | 45° |
| 2026-05-05 16:49 | 10.21245 | 123.88392 | 2348 ft | 145 kts | 46° |
| 2026-05-05 16:49 | 10.21930 | 123.89084 | 2122 ft | 133 kts | 46° |
| 2026-05-05 16:49 | 10.22586 | 123.89745 | 1962 ft | 132 kts | 46° |
| 2026-05-05 16:49 | 10.23235 | 123.90400 | 1793 ft | 132 kts | 46° |
| 2026-05-05 16:50 | 10.23888 | 123.91058 | 1617 ft | 132 kts | 46° |
| 2026-05-05 16:50 | 10.24544 | 123.91717 | 1442 ft | 132 kts | 46° |
| 2026-05-05 16:50 | 10.25191 | 123.92368 | 1266 ft | 131 kts | 46° |
| 2026-05-05 16:50 | 10.25845 | 123.93024 | 1084 ft | 131 kts | 46° |
| 2026-05-05 16:51 | 10.26486 | 123.93668 | 918 ft | 130 kts | 46° |
| 2026-05-05 16:51 | 10.27129 | 123.94326 | 736 ft | 130 kts | 46° |
| 2026-05-05 16:51 | 10.27777 | 123.94964 | 564 ft | 129 kts | 44° |
| 2026-05-05 16:51 | 10.28427 | 123.95601 | 406 ft | 129 kts | 45° |
| 2026-05-05 16:52 | 10.29067 | 123.96244 | 229 ft | 129 kts | 45° |
| 2026-05-05 16:52 | 10.29704 | 123.96886 | 81 ft | 128 kts | 45° |
| 2026-05-05 16:52 | 10.30298 | 123.97488 | 38 ft | 102 kts | 45° |
| 2026-05-05 16:52 | 10.30684 | 123.97871 | 38 ft | 52 kts | 46° |
| 2026-05-05 16:53 | 10.30915 | 123.98103 | 38 ft | 43 kts | 45° |
| 2026-05-05 16:53 | 10.31069 | 123.98257 | 38 ft | 23 kts | 41° |
| 2026-05-05 16:53 | 10.31210 | 123.98320 | 38 ft | 17 kts | 17° |
| 2026-05-05 16:53 | 10.31304 | 123.98349 | 38 ft | 12 kts | 11° |
| 2026-05-05 16:54 | 10.31385 | 123.98331 | 38 ft | 12 kts | 321° |
| 2026-05-05 16:54 | 10.31449 | 123.98267 | 38 ft | 13 kts | 315° |
| 2026-05-05 16:54 | 10.31516 | 123.98199 | 38 ft | 12 kts | 314° |
| 2026-05-05 16:54 | 10.31563 | 123.98148 | 38 ft | 7 kts | 307° |
| 2026-05-05 16:55 | 10.31556 | 123.98096 | 38 ft | 9 kts | 228° |
| 2026-05-05 16:55 | 10.31511 | 123.98048 | 38 ft | 6 kts | 225° |
| 2026-05-05 16:55 | 10.31507 | 123.98022 | 38 ft | 4 kts | 317° |
| 2026-05-05 16:55 | 10.31530 | 123.97997 | 38 ft | 4 kts | 314° |
| 2026-05-05 16:56 | 10.31547 | 123.97980 | 38 ft | 1 kts | 314° |
| 2026-05-05 16:56 | 10.31550 | 123.97977 | 38 ft | 0 kts | 314° |